createdAt,value
2023-03-05T00:06:52.596Z,100.00
2023-03-05T00:26:54.055Z,99.01
2023-03-05T00:46:55.723Z,99.04
2023-03-05T01:06:57.246Z,100.00
2023-03-05T01:26:59.022Z,100.00
2023-03-05T01:47:00.499Z,100.00
2023-03-05T02:07:02.339Z,100.00
2023-03-05T02:27:03.806Z,100.00
2023-03-05T02:47:08.394Z,100.00
2023-03-05T03:07:10.695Z,100.00
2023-03-05T03:27:12.212Z,100.00
2023-03-05T03:47:14.040Z,100.00
2023-03-05T04:07:15.571Z,100.00
2023-03-05T04:27:17.047Z,100.00
2023-03-05T04:47:18.569Z,100.00
2023-03-05T05:07:20.196Z,100.00
2023-03-05T05:27:22.087Z,100.00
2023-03-05T05:47:24.006Z,100.00
2023-03-05T06:07:25.892Z,100.00
2023-03-05T06:27:29.152Z,100.00
2023-03-05T06:47:30.768Z,100.00
2023-03-05T07:07:32.300Z,100.00
2023-03-05T07:27:34.288Z,100.00
2023-03-05T07:47:35.905Z,100.00
2023-03-05T08:07:38.593Z,100.00
2023-03-05T08:27:40.514Z,100.00
2023-03-05T08:47:44.088Z,100.00
2023-03-05T09:07:45.742Z,100.00
2023-03-05T09:27:47.378Z,100.00
2023-03-05T09:47:49.938Z,99.62
2023-03-05T10:08:09.820Z,97.33
2023-03-05T10:28:29.729Z,94.67
2023-03-05T10:48:49.560Z,86.65
2023-03-05T11:09:10.029Z,90.17
2023-03-05T11:29:30.016Z,85.51
2023-03-05T11:49:50.183Z,88.45
2023-03-05T12:09:52.708Z,86.46
2023-03-05T12:29:54.648Z,85.76
2023-03-05T12:49:56.046Z,84.38
2023-03-05T13:09:57.890Z,81.21
2023-03-05T13:29:59.297Z,89.73
2023-03-05T13:50:00.865Z,94.34
2023-03-05T14:10:02.500Z,92.93
2023-03-05T14:30:04.057Z,92.11
2023-03-05T14:50:08.319Z,89.81
2023-03-05T15:10:09.853Z,89.61
2023-03-05T15:30:11.353Z,90.40
2023-03-05T15:50:13.179Z,85.00
2023-03-05T16:10:17.778Z,81.87
2023-03-05T16:30:19.303Z,79.96
2023-03-05T16:50:20.988Z,78.64
2023-03-05T17:10:22.654Z,75.28
2023-03-05T17:30:24.134Z,75.30
2023-03-05T17:50:26.726Z,76.66
2023-03-05T18:10:28.273Z,76.39
2023-03-05T18:30:29.930Z,77.30
2023-03-05T18:50:31.580Z,75.85
2023-03-05T19:10:33.212Z,75.51
2023-03-05T19:30:34.804Z,76.25
2023-03-05T20:32:09.760Z,71.07
2023-03-05T20:52:14.553Z,70.65
2023-03-05T21:22:55.677Z,71.56
2023-03-05T21:42:57.700Z,73.40
2023-03-05T22:02:59.603Z,71.02
2023-03-05T22:23:01.690Z,68.56
2023-03-05T22:43:03.645Z,69.84
2023-03-05T23:03:05.460Z,71.71
2023-03-05T23:23:07.382Z,73.36
2023-03-05T23:43:28.379Z,74.23
